createdAt,value
2023-03-22T00:02:28.020Z,57.04
2023-03-22T00:05:10.944Z,57.04
2023-03-22T00:07:58.134Z,57.02
2023-03-22T00:10:42.477Z,57.09
2023-03-22T00:13:25.533Z,57.09
2023-03-22T00:16:09.695Z,57.19
2023-03-22T00:18:54.043Z,57.07
2023-03-22T00:21:36.929Z,57.11
2023-03-22T00:24:21.155Z,57.04
2023-03-22T00:27:04.485Z,57.12
2023-03-22T00:29:47.456Z,57.13
2023-03-22T00:32:35.238Z,57.30
2023-03-22T00:35:19.722Z,57.20
2023-03-22T00:38:14.158Z,57.38
2023-03-22T00:41:06.497Z,57.40
2023-03-22T00:43:50.813Z,57.40
2023-03-22T00:46:33.923Z,57.41
2023-03-22T00:49:16.908Z,57.44
2023-03-22T00:52:01.236Z,57.55
2023-03-22T00:54:44.203Z,57.42
2023-03-22T00:57:27.294Z,57.39
2023-03-22T01:00:13.793Z,57.38
2023-03-22T01:02:59.689Z,57.22
2023-03-22T01:05:45.348Z,57.02
2023-03-22T01:08:33.556Z,57.00
2023-03-22T01:11:16.603Z,56.85
2023-03-22T01:13:59.651Z,57.06
2023-03-22T01:16:42.827Z,57.11
2023-03-22T01:19:27.552Z,57.29
2023-03-22T01:22:10.677Z,57.18
2023-03-22T01:24:55.266Z,57.24
2023-03-22T01:27:38.342Z,57.27
2023-03-22T01:30:21.490Z,57.32
2023-03-22T01:33:05.723Z,57.28
2023-03-22T01:35:48.838Z,57.72
2023-03-22T01:38:32.104Z,57.62
2023-03-22T01:41:18.805Z,57.48
2023-03-22T01:44:10.192Z,57.84
2023-03-22T01:46:53.548Z,57.94
2023-03-22T01:49:37.583Z,57.71
2023-03-22T01:52:20.722Z,57.71
2023-03-22T01:55:18.291Z,57.76
2023-03-22T01:58:06.383Z,57.91
2023-03-22T02:00:59.738Z,57.84
2023-03-22T02:04:08.152Z,57.86
2023-03-22T02:06:54.787Z,58.02
2023-03-22T02:09:41.422Z,58.11
2023-03-22T02:12:34.979Z,58.54
2023-03-22T02:15:34.975Z,59.03
2023-03-22T02:19:05.525Z,59.33
2023-03-22T02:22:22.861Z,59.22
2023-03-22T02:25:27.546Z,59.33
2023-03-22T02:28:21.970Z,59.54
2023-03-22T02:31:49.370Z,59.99
2023-03-22T02:34:55.926Z,59.96
2023-03-22T02:37:58.437Z,59.91
2023-03-22T02:40:49.796Z,59.85
2023-03-22T02:43:39.101Z,59.80
2023-03-22T02:46:27.363Z,59.91
2023-03-22T02:49:18.061Z,60.15
2023-03-22T02:52:10.254Z,60.20
2023-03-22T02:55:00.392Z,60.62
2023-03-22T02:57:49.006Z,60.33
2023-03-22T03:00:35.834Z,60.24
2023-03-22T03:03:25.578Z,60.17
2023-03-22T03:06:14.238Z,60.25
2023-03-22T03:08:58.017Z,60.15
2023-03-22T03:11:42.305Z,60.05
2023-03-22T03:14:28.757Z,60.61
2023-03-22T03:17:24.754Z,60.48
2023-03-22T03:20:24.312Z,60.29
2023-03-22T03:23:17.637Z,60.40
2023-03-22T03:26:05.838Z,60.29
2023-03-22T03:28:53.791Z,60.26
2023-03-22T03:31:43.705Z,60.28
2023-03-22T03:34:31.488Z,60.42
2023-03-22T03:37:18.849Z,60.44
2023-03-22T03:40:09.742Z,60.53
2023-03-22T03:42:55.349Z,60.45
2023-03-22T03:45:41.371Z,60.65
2023-03-22T03:48:30.153Z,60.40
2023-03-22T03:51:13.045Z,60.38
2023-03-22T03:53:56.427Z,60.63
2023-03-22T03:56:39.577Z,60.53
2023-03-22T03:59:22.550Z,60.54
2023-03-22T04:02:07.377Z,60.33
2023-03-22T04:04:51.702Z,60.57
2023-03-22T04:07:36.179Z,60.48
2023-03-22T04:10:19.284Z,60.45
2023-03-22T04:13:02.131Z,60.33
2023-03-22T04:15:45.077Z,60.25
2023-03-22T04:18:30.826Z,60.61
2023-03-22T04:21:18.409Z,60.58
2023-03-22T04:24:14.579Z,60.78
2023-03-22T04:27:00.509Z,61.26
2023-03-22T04:29:52.268Z,61.24
2023-03-22T04:32:53.524Z,61.26
2023-03-22T04:35:43.152Z,61.21
2023-03-22T04:38:27.477Z,61.06
2023-03-22T04:41:11.875Z,61.47
2023-03-22T04:44:03.218Z,61.83
2023-03-22T04:46:48.008Z,62.25
2023-03-22T04:49:32.428Z,62.49
2023-03-22T04:52:15.590Z,62.32
2023-03-22T04:55:07.114Z,62.79
2023-03-22T04:57:51.212Z,63.06
2023-03-22T05:00:34.081Z,63.01
2023-03-22T05:03:19.306Z,63.31
2023-03-22T05:06:03.882Z,63.38
2023-03-22T05:08:57.040Z,63.34
2023-03-22T05:11:41.786Z,63.68
2023-03-22T05:14:44.699Z,63.25
2023-03-22T05:17:29.513Z,63.14
2023-03-22T05:20:14.715Z,63.08
2023-03-22T05:23:02.579Z,63.19
2023-03-22T05:25:46.988Z,63.22
2023-03-22T05:28:34.399Z,63.14
2023-03-22T05:31:28.762Z,63.47
2023-03-22T05:34:16.666Z,63.43
2023-03-22T05:37:00.858Z,63.58
2023-03-22T05:39:48.025Z,63.86
2023-03-22T05:42:31.522Z,63.82
2023-03-22T05:45:17.984Z,63.79
2023-03-22T05:48:05.612Z,63.89
2023-03-22T05:50:48.814Z,63.75
2023-03-22T05:53:33.206Z,63.60
2023-03-22T05:56:45.246Z,63.78
2023-03-22T05:59:28.300Z,63.77
2023-03-22T06:02:13.149Z,63.83
2023-03-22T06:04:56.239Z,63.58
2023-03-22T06:07:40.963Z,63.44
2023-03-22T06:10:31.956Z,63.35
2023-03-22T06:13:15.047Z,63.48
2023-03-22T06:16:00.562Z,63.36
2023-03-22T06:18:44.858Z,63.45
2023-03-22T06:21:28.838Z,63.50
2023-03-22T06:24:11.909Z,63.30
2023-03-22T06:26:55.702Z,63.38
2023-03-22T06:29:38.653Z,63.32
2023-03-22T06:32:23.689Z,63.25
2023-03-22T06:35:09.253Z,63.25
2023-03-22T06:37:52.201Z,63.16
2023-03-22T06:40:36.140Z,63.34
2023-03-22T06:43:19.105Z,63.32
2023-03-22T06:46:06.494Z,63.18
2023-03-22T06:48:58.968Z,63.07
2023-03-22T06:51:43.264Z,63.01
2023-03-22T06:54:26.534Z,63.10
2023-03-22T06:57:09.693Z,63.04
2023-03-22T06:59:52.577Z,62.83
2023-03-22T07:02:36.393Z,62.66
2023-03-22T07:05:32.670Z,62.57
2023-03-22T07:08:17.211Z,62.57
2023-03-22T07:11:07.898Z,62.43
2023-03-22T07:13:51.856Z,62.22
2023-03-22T07:16:37.105Z,62.44
2023-03-22T07:19:22.231Z,62.26
2023-03-22T07:22:05.267Z,62.20
2023-03-22T07:24:57.046Z,61.99
2023-03-22T07:27:43.362Z,61.84
2023-03-22T07:30:26.530Z,61.85
2023-03-22T07:33:11.996Z,61.65
2023-03-22T07:35:56.765Z,61.75
2023-03-22T07:38:39.980Z,61.49
2023-03-22T07:41:30.238Z,61.54
2023-03-22T07:44:42.118Z,61.48
2023-03-22T07:47:39.968Z,61.07
2023-03-22T07:50:56.598Z,61.17
2023-03-22T07:53:41.339Z,61.25
2023-03-22T07:56:24.855Z,61.35
2023-03-22T07:59:09.233Z,61.04
2023-03-22T08:01:53.602Z,61.07
2023-03-22T08:04:55.114Z,61.24
2023-03-22T08:07:45.836Z,61.27
2023-03-22T08:10:31.674Z,61.35
2023-03-22T08:13:14.869Z,61.24
2023-03-22T08:15:59.224Z,60.88
2023-03-22T08:18:44.256Z,61.17
2023-03-22T08:21:28.197Z,61.07
2023-03-22T08:24:13.261Z,60.63
2023-03-22T08:27:15.011Z,60.95
2023-03-22T08:30:03.851Z,60.60
2023-03-22T08:32:48.968Z,60.43
2023-03-22T08:35:32.496Z,60.37
2023-03-22T08:38:15.492Z,60.23
2023-03-22T08:41:03.379Z,60.38
2023-03-22T08:43:46.321Z,59.94
2023-03-22T08:46:29.337Z,59.64
2023-03-22T08:49:14.978Z,58.94
2023-03-22T08:52:03.742Z,58.57
2023-03-22T08:55:10.686Z,57.95
2023-03-22T08:58:22.239Z,58.22
2023-03-22T09:01:05.330Z,57.22
2023-03-22T09:04:07.910Z,56.70
2023-03-22T09:06:53.850Z,56.44
2023-03-22T09:09:36.910Z,55.95
2023-03-22T09:12:21.123Z,56.85
2023-03-22T09:15:04.697Z,55.45
2023-03-22T09:17:47.764Z,55.51
2023-03-22T09:20:30.657Z,55.49
2023-03-22T09:23:15.519Z,55.51
2023-03-22T09:26:00.548Z,54.44
2023-03-22T09:28:45.536Z,55.66
2023-03-22T09:31:29.150Z,54.46
2023-03-22T09:34:27.132Z,54.60
2023-03-22T09:37:13.091Z,54.23
2023-03-22T09:40:04.158Z,54.44
2023-03-22T09:42:49.420Z,53.27
2023-03-22T09:45:38.534Z,53.04
2023-03-22T09:48:28.602Z,52.79
2023-03-22T09:51:24.684Z,52.33
2023-03-22T09:54:15.298Z,52.86
2023-03-22T09:57:03.306Z,51.98
2023-03-22T09:59:57.062Z,50.62
2023-03-22T10:02:51.116Z,51.04
2023-03-22T10:05:40.850Z,51.18
2023-03-22T10:08:48.736Z,50.07
2023-03-22T10:11:44.406Z,48.87
2023-03-22T10:14:34.083Z,48.38
2023-03-22T10:17:19.931Z,48.40
2023-03-22T10:20:08.182Z,48.00
2023-03-22T10:22:53.765Z,48.96
2023-03-22T10:25:39.328Z,47.48
2023-03-22T10:28:24.796Z,48.21
2023-03-22T10:31:16.264Z,47.34
2023-03-22T10:34:00.922Z,46.90
2023-03-22T10:36:45.533Z,46.84
2023-03-22T10:39:32.750Z,45.90
2023-03-22T10:42:19.080Z,46.02
2023-03-22T10:45:04.090Z,45.61
2023-03-22T10:47:55.030Z,45.95
2023-03-22T10:50:40.865Z,45.67
2023-03-22T10:53:31.474Z,43.81
2023-03-22T10:56:16.845Z,44.14
2023-03-22T10:58:59.682Z,44.69
2023-03-22T11:01:46.618Z,43.88
2023-03-22T11:04:33.524Z,42.75
2023-03-22T11:07:28.637Z,43.02
2023-03-22T11:10:23.262Z,42.35
2023-03-22T11:13:18.493Z,42.75
2023-03-22T11:16:03.753Z,42.17
2023-03-22T11:18:47.204Z,42.37
2023-03-22T11:21:34.194Z,42.15
2023-03-22T11:24:17.155Z,41.98
2023-03-22T11:27:05.693Z,42.05
2023-03-22T11:29:51.042Z,41.59
2023-03-22T11:32:37.113Z,41.15
2023-03-22T11:35:23.432Z,40.42
2023-03-22T11:38:07.917Z,40.12
2023-03-22T11:40:56.077Z,40.28
2023-03-22T11:43:42.364Z,39.45
2023-03-22T11:46:25.996Z,39.60
2023-03-22T11:49:14.531Z,39.02
2023-03-22T11:51:57.646Z,39.83
2023-03-22T11:54:43.875Z,38.47
2023-03-22T11:57:30.017Z,37.26
2023-03-22T12:00:20.111Z,36.61
2023-03-22T12:03:07.247Z,36.61
2023-03-22T12:05:51.869Z,37.37
2023-03-22T12:08:42.842Z,34.79
2023-03-22T12:11:33.976Z,35.29
2023-03-22T12:14:22.901Z,35.40
2023-03-22T12:17:09.340Z,35.44
2023-03-22T12:19:59.720Z,34.76
2023-03-22T12:22:47.827Z,34.34
2023-03-22T12:25:35.012Z,34.35
2023-03-22T12:28:24.084Z,33.04
2023-03-22T12:31:11.673Z,33.74
2023-03-22T12:33:57.552Z,33.98
2023-03-22T12:36:44.116Z,33.88
2023-03-22T12:39:32.412Z,34.18
2023-03-22T12:42:23.056Z,34.67
2023-03-22T12:45:14.709Z,33.67
2023-03-22T12:48:02.265Z,33.10
2023-03-22T12:50:50.126Z,33.44
2023-03-22T12:53:42.385Z,34.03
2023-03-22T12:56:28.533Z,33.92
2023-03-22T12:59:18.694Z,33.92
2023-03-22T13:02:11.669Z,33.92
2023-03-22T13:04:56.858Z,33.52
2023-03-22T13:07:52.756Z,34.09
2023-03-22T13:10:42.752Z,33.85
2023-03-22T13:13:47.294Z,33.43
2023-03-22T13:16:51.620Z,32.97
2023-03-22T13:19:37.708Z,33.97
2023-03-22T13:22:24.321Z,33.92
2023-03-22T13:25:14.482Z,33.76
2023-03-22T13:27:59.678Z,33.99
2023-03-22T13:30:50.362Z,33.48
2023-03-22T13:33:35.696Z,33.03
2023-03-22T13:36:26.263Z,33.24
2023-03-22T13:39:12.489Z,33.37
2023-03-22T13:42:09.520Z,33.60
2023-03-22T13:45:11.385Z,33.77
2023-03-22T13:48:09.938Z,34.47
2023-03-22T13:50:54.399Z,34.51
2023-03-22T13:53:40.620Z,34.56
2023-03-22T13:56:34.785Z,35.10
2023-03-22T13:59:25.583Z,35.17
2023-03-22T14:02:18.693Z,35.18
2023-03-22T14:05:10.172Z,35.75
2023-03-22T14:07:56.244Z,35.83
2023-03-22T14:10:45.318Z,35.75
2023-03-22T14:13:34.248Z,35.71
2023-03-22T14:16:22.819Z,35.73
2023-03-22T14:19:07.354Z,35.99
